Pagrindinis puslapis
METAR-TAF:

METAR-TAF

Oro uostai :

Umiujaq, Kvebekas, Kanada

platuma: 56-32N, ilguma: 076-31W, Aukštis: 71 m

Dabartinis oras

Ataskaita buvo paskelbta 7 valandos ir 57 minutes, ne 22:00 UTC
Vėjas 27 kt iš Rytų/Šiaurės Rytų
Temperatūra -18°C
Drėgmė 65%
Slėgis 1018 hPa
Matomumas: 24.1 km
Mažai debesys ne aukštis 18000 ft
Išsisklaidę debesys ne aukštis 23000 ft
Sniego pustymas pažeme

METAR: CYMU 272200Z 07027KT 15SM DRSN FEW180 SCT230 M18/M23 A3005 RMK AC1CI3 AC TR LAST STFD OBS/NEXT 28 1300Z PRESFR SLP189

Laikas: 00:57 (05:57 UTC)


TAF: trūkstamas

Orai ataskaitas ir orų prognozės (METAR, TAF).

turimą stotys yra geltonos ir raudonos taškus žemėlapyje.

Perkelti pele per norėdami pamatyti stoties vardą.

Tada spustelėkite, norėdami matyti oro stebėjimo ir prognozės.

Norėdami pakeisti žemėlapį: spustelėkite ant žalios mygtukų su juodo kryžiaus žemyn,; žalią mygtuką su brūkšneliu, jei norite nutolinti; arba žalių rodyklių gretimoms žemėlapius.


METAR-TAF: